sensor_id;sensor_type;location;lat;lon;timestamp;P1;durP1;ratioP1;P2;durP2;ratioP2
20639;SDS011;10479;53.524;9.846;2022-07-31T00:00:39;27.13;;;14.50;;
20639;SDS011;10479;53.524;9.846;2022-07-31T00:03:05;25.70;;;14.68;;
20639;SDS011;10479;53.524;9.846;2022-07-31T00:05:31;28.17;;;15.23;;
20639;SDS011;10479;53.524;9.846;2022-07-31T00:08:02;23.52;;;15.65;;
20639;SDS011;10479;53.524;9.846;2022-07-31T00:10:28;23.33;;;15.18;;
20639;SDS011;10479;53.524;9.846;2022-07-31T00:12:54;26.65;;;16.15;;
20639;SDS011;10479;53.524;9.846;2022-07-31T00:15:19;29.73;;;16.75;;
20639;SDS011;10479;53.524;9.846;2022-07-31T00:17:46;26.10;;;16.08;;
20639;SDS011;10479;53.524;9.846;2022-07-31T00:20:13;31.77;;;16.67;;
20639;SDS011;10479;53.524;9.846;2022-07-31T00:22:40;32.65;;;16.73;;
20639;SDS011;10479;53.524;9.846;2022-07-31T00:25:06;24.92;;;17.33;;
20639;SDS011;10479;53.524;9.846;2022-07-31T00:27:32;25.48;;;16.35;;
20639;SDS011;10479;53.524;9.846;2022-07-31T00:29:58;35.00;;;16.95;;
20639;SDS011;10479;53.524;9.846;2022-07-31T00:32:23;30.50;;;17.08;;
20639;SDS011;10479;53.524;9.846;2022-07-31T00:34:49;26.70;;;16.92;;
20639;SDS011;10479;53.524;9.846;2022-07-31T00:37:14;31.67;;;17.05;;
20639;SDS011;10479;53.524;9.846;2022-07-31T00:39:40;29.25;;;15.65;;
20639;SDS011;10479;53.524;9.846;2022-07-31T00:42:14;27.90;;;16.40;;
20639;SDS011;10479;53.524;9.846;2022-07-31T00:44:40;25.27;;;15.95;;
20639;SDS011;10479;53.524;9.846;2022-07-31T00:47:06;31.00;;;15.90;;
20639;SDS011;10479;53.524;9.846;2022-07-31T00:49:31;26.95;;;15.95;;
20639;SDS011;10479;53.524;9.846;2022-07-31T00:51:57;28.25;;;15.80;;
20639;SDS011;10479;53.524;9.846;2022-07-31T00:54:23;27.77;;;15.52;;
20639;SDS011;10479;53.524;9.846;2022-07-31T00:56:48;23.88;;;14.82;;
20639;SDS011;10479;53.524;9.846;2022-07-31T00:59:14;26.60;;;14.60;;
20639;SDS011;10479;53.524;9.846;2022-07-31T01:01:40;26.42;;;15.70;;
20639;SDS011;10479;53.524;9.846;2022-07-31T01:04:05;25.70;;;15.85;;
20639;SDS011;10479;53.524;9.846;2022-07-31T01:06:35;23.75;;;15.02;;
20639;SDS011;10479;53.524;9.846;2022-07-31T01:09:00;25.02;;;15.65;;
20639;SDS011;10479;53.524;9.846;2022-07-31T01:12:01;26.98;;;15.32;;
20639;SDS011;10479;53.524;9.846;2022-07-31T01:14:21;28.58;;;17.10;;
20639;SDS011;10479;53.524;9.846;2022-07-31T01:16:50;33.90;;;18.48;;
20639;SDS011;10479;53.524;9.846;2022-07-31T01:19:22;29.13;;;18.23;;
20639;SDS011;10479;53.524;9.846;2022-07-31T01:30:38;34.00;;;18.63;;
20639;SDS011;10479;53.524;9.846;2022-07-31T01:33:09;31.17;;;18.60;;
20639;SDS011;10479;53.524;9.846;2022-07-31T01:35:44;32.90;;;19.23;;
20639;SDS011;10479;53.524;9.846;2022-07-31T01:38:14;33.60;;;19.20;;
20639;SDS011;10479;53.524;9.846;2022-07-31T01:40:44;31.08;;;18.63;;
20639;SDS011;10479;53.524;9.846;2022-07-31T01:43:12;33.72;;;18.85;;
20639;SDS011;10479;53.524;9.846;2022-07-31T01:45:46;29.30;;;18.20;;
20639;SDS011;10479;53.524;9.846;2022-07-31T01:48:15;32.47;;;19.20;;
20639;SDS011;10479;53.524;9.846;2022-07-31T01:50:42;29.33;;;19.00;;
20639;SDS011;10479;53.524;9.846;2022-07-31T01:53:16;34.17;;;18.63;;
20639;SDS011;10479;53.524;9.846;2022-07-31T01:55:43;34.95;;;18.80;;
20639;SDS011;10479;53.524;9.846;2022-07-31T01:58:11;33.35;;;19.10;;
20639;SDS011;10479;53.524;9.846;2022-07-31T02:00:38;40.00;;;21.08;;
20639;SDS011;10479;53.524;9.846;2022-07-31T02:03:04;30.85;;;19.20;;
20639;SDS011;10479;53.524;9.846;2022-07-31T02:05:30;34.95;;;20.35;;
20639;SDS011;10479;53.524;9.846;2022-07-31T02:07:57;35.40;;;20.92;;
20639;SDS011;10479;53.524;9.846;2022-07-31T02:10:23;26.73;;;18.58;;
20639;SDS011;10479;53.524;9.846;2022-07-31T02:12:49;43.28;;;20.17;;
20639;SDS011;10479;53.524;9.846;2022-07-31T02:15:15;30.10;;;18.85;;
20639;SDS011;10479;53.524;9.846;2022-07-31T02:17:42;29.20;;;18.95;;
20639;SDS011;10479;53.524;9.846;2022-07-31T02:20:09;28.80;;;19.15;;
20639;SDS011;10479;53.524;9.846;2022-07-31T02:22:36;33.42;;;20.52;;
20639;SDS011;10479;53.524;9.846;2022-07-31T02:25:02;29.25;;;18.85;;
20639;SDS011;10479;53.524;9.846;2022-07-31T02:27:28;33.95;;;20.45;;
20639;SDS011;10479;53.524;9.846;2022-07-31T02:29:54;35.78;;;21.42;;
20639;SDS011;10479;53.524;9.846;2022-07-31T02:32:22;32.75;;;21.15;;
20639;SDS011;10479;53.524;9.846;2022-07-31T02:34:48;33.67;;;20.98;;
20639;SDS011;10479;53.524;9.846;2022-07-31T02:37:14;41.42;;;23.67;;
20639;SDS011;10479;53.524;9.846;2022-07-31T02:39:40;39.65;;;24.42;;
20639;SDS011;10479;53.524;9.846;2022-07-31T02:42:06;43.17;;;25.58;;
20639;SDS011;10479;53.524;9.846;2022-07-31T02:44:32;47.75;;;28.42;;
20639;SDS011;10479;53.524;9.846;2022-07-31T02:47:01;40.10;;;24.05;;
20639;SDS011;10479;53.524;9.846;2022-07-31T02:49:29;42.03;;;26.13;;
20639;SDS011;10479;53.524;9.846;2022-07-31T02:51:55;40.10;;;24.50;;
20639;SDS011;10479;53.524;9.846;2022-07-31T02:54:22;33.90;;;22.35;;
20639;SDS011;10479;53.524;9.846;2022-07-31T02:56:51;40.17;;;22.88;;
20639;SDS011;10479;53.524;9.846;2022-07-31T02:59:17;39.40;;;21.63;;
20639;SDS011;10479;53.524;9.846;2022-07-31T03:01:42;33.60;;;22.10;;
20639;SDS011;10479;53.524;9.846;2022-07-31T03:04:08;34.20;;;22.80;;
20639;SDS011;10479;53.524;9.846;2022-07-31T03:06:34;33.92;;;21.10;;
20639;SDS011;10479;53.524;9.846;2022-07-31T03:09:00;44.15;;;24.58;;
20639;SDS011;10479;53.524;9.846;2022-07-31T03:11:25;44.55;;;24.63;;
20639;SDS011;10479;53.524;9.846;2022-07-31T03:13:51;43.47;;;24.65;;
20639;SDS011;10479;53.524;9.846;2022-07-31T03:16:18;33.17;;;22.27;;
20639;SDS011;10479;53.524;9.846;2022-07-31T03:18:43;35.13;;;22.42;;
20639;SDS011;10479;53.524;9.846;2022-07-31T03:21:09;37.95;;;22.60;;
20639;SDS011;10479;53.524;9.846;2022-07-31T03:23:36;37.17;;;21.40;;
20639;SDS011;10479;53.524;9.846;2022-07-31T03:26:02;38.15;;;23.08;;
20639;SDS011;10479;53.524;9.846;2022-07-31T03:28:28;43.05;;;24.65;;
20639;SDS011;10479;53.524;9.846;2022-07-31T03:30:54;43.08;;;25.45;;
20639;SDS011;10479;53.524;9.846;2022-07-31T03:33:21;39.25;;;24.33;;
20639;SDS011;10479;53.524;9.846;2022-07-31T03:35:47;48.30;;;27.80;;
20639;SDS011;10479;53.524;9.846;2022-07-31T03:38:13;47.38;;;27.92;;
20639;SDS011;10479;53.524;9.846;2022-07-31T03:40:40;42.90;;;24.67;;
20639;SDS011;10479;53.524;9.846;2022-07-31T03:43:07;51.38;;;28.05;;
20639;SDS011;10479;53.524;9.846;2022-07-31T03:45:33;39.08;;;24.05;;
20639;SDS011;10479;53.524;9.846;2022-07-31T03:47:59;43.28;;;25.65;;
20639;SDS011;10479;53.524;9.846;2022-07-31T03:50:26;43.70;;;25.80;;
20639;SDS011;10479;53.524;9.846;2022-07-31T03:52:52;36.42;;;23.92;;
20639;SDS011;10479;53.524;9.846;2022-07-31T03:55:18;41.45;;;24.40;;
20639;SDS011;10479;53.524;9.846;2022-07-31T03:57:44;40.33;;;23.75;;
20639;SDS011;10479;53.524;9.846;2022-07-31T04:00:10;41.80;;;25.05;;
20639;SDS011;10479;53.524;9.846;2022-07-31T04:02:36;41.17;;;25.00;;
20639;SDS011;10479;53.524;9.846;2022-07-31T04:05:02;49.75;;;26.00;;
20639;SDS011;10479;53.524;9.846;2022-07-31T04:07:28;36.15;;;22.70;;
20639;SDS011;10479;53.524;9.846;2022-07-31T04:09:53;48.35;;;26.08;;
20639;SDS011;10479;53.524;9.846;2022-07-31T04:12:19;41.58;;;23.58;;
20639;SDS011;10479;53.524;9.846;2022-07-31T04:14:45;43.15;;;24.85;;
20639;SDS011;10479;53.524;9.846;2022-07-31T04:17:10;36.47;;;23.48;;
20639;SDS011;10479;53.524;9.846;2022-07-31T04:19:36;48.65;;;26.55;;
20639;SDS011;10479;53.524;9.846;2022-07-31T04:22:01;41.30;;;23.30;;
20639;SDS011;10479;53.524;9.846;2022-07-31T04:24:27;37.33;;;22.90;;
20639;SDS011;10479;53.524;9.846;2022-07-31T04:26:53;38.65;;;23.48;;
20639;SDS011;10479;53.524;9.846;2022-07-31T04:29:19;40.95;;;25.35;;
20639;SDS011;10479;53.524;9.846;2022-07-31T04:31:45;36.00;;;24.55;;
20639;SDS011;10479;53.524;9.846;2022-07-31T04:34:10;35.72;;;24.23;;
20639;SDS011;10479;53.524;9.846;2022-07-31T04:36:36;38.72;;;24.10;;
20639;SDS011;10479;53.524;9.846;2022-07-31T04:39:02;38.88;;;24.17;;
20639;SDS011;10479;53.524;9.846;2022-07-31T04:41:28;39.67;;;24.73;;
20639;SDS011;10479;53.524;9.846;2022-07-31T04:43:53;42.50;;;24.73;;
20639;SDS011;10479;53.524;9.846;2022-07-31T04:46:19;39.38;;;24.63;;
20639;SDS011;10479;53.524;9.846;2022-07-31T04:48:45;0.47;;;0.40;;
20639;SDS011;10479;53.524;9.846;2022-07-31T04:51:17;1.73;;;1.48;;
20639;SDS011;10479;53.524;9.846;2022-07-31T04:53:44;0.20;;;0.17;;
20639;SDS011;10479;53.524;9.846;2022-07-31T04:56:10;0.00;;;0.00;;
20639;SDS011;10479;53.524;9.846;2022-07-31T04:58:53;0.00;;;0.00;;
20639;SDS011;10479;53.524;9.846;2022-07-31T05:01:19;0.00;;;0.00;;
20639;SDS011;10479;53.524;9.846;2022-07-31T05:03:44;0.20;;;0.20;;
20639;SDS011;10479;53.524;9.846;2022-07-31T05:06:10;1.45;;;0.98;;
20639;SDS011;10479;53.524;9.846;2022-07-31T05:08:36;34.05;;;21.48;;
20639;SDS011;10479;53.524;9.846;2022-07-31T05:11:02;38.85;;;24.15;;
20639;SDS011;10479;53.524;9.846;2022-07-31T05:13:46;36.50;;;21.40;;
20639;SDS011;10479;53.524;9.846;2022-07-31T05:16:19;36.85;;;22.05;;
20639;SDS011;10479;53.524;9.846;2022-07-31T05:18:45;36.70;;;24.20;;
20639;SDS011;10479;53.524;9.846;2022-07-31T05:21:11;32.88;;;21.77;;
20639;SDS011;10479;53.524;9.846;2022-07-31T05:23:41;32.00;;;21.58;;
20639;SDS011;10479;53.524;9.846;2022-07-31T05:26:07;36.10;;;22.05;;
20639;SDS011;10479;53.524;9.846;2022-07-31T05:28:36;33.25;;;20.33;;
20639;SDS011;10479;53.524;9.846;2022-07-31T05:31:02;35.00;;;22.65;;
20639;SDS011;10479;53.524;9.846;2022-07-31T05:33:28;31.35;;;19.90;;
20639;SDS011;10479;53.524;9.846;2022-07-31T05:35:54;32.25;;;21.33;;
20639;SDS011;10479;53.524;9.846;2022-07-31T05:38:21;30.30;;;19.23;;
20639;SDS011;10479;53.524;9.846;2022-07-31T05:40:46;31.20;;;19.08;;
20639;SDS011;10479;53.524;9.846;2022-07-31T05:43:12;33.90;;;18.85;;
20639;SDS011;10479;53.524;9.846;2022-07-31T05:45:37;34.80;;;18.00;;
20639;SDS011;10479;53.524;9.846;2022-07-31T05:48:03;32.80;;;18.85;;
20639;SDS011;10479;53.524;9.846;2022-07-31T05:50:29;29.60;;;17.25;;
20639;SDS011;10479;53.524;9.846;2022-07-31T05:52:55;27.27;;;17.42;;
20639;SDS011;10479;53.524;9.846;2022-07-31T05:55:20;37.95;;;18.73;;
20639;SDS011;10479;53.524;9.846;2022-07-31T05:57:46;30.17;;;17.65;;
20639;SDS011;10479;53.524;9.846;2022-07-31T06:00:12;25.15;;;16.27;;
20639;SDS011;10479;53.524;9.846;2022-07-31T06:02:40;24.55;;;16.77;;
20639;SDS011;10479;53.524;9.846;2022-07-31T06:05:05;24.73;;;15.80;;
20639;SDS011;10479;53.524;9.846;2022-07-31T06:07:31;24.23;;;16.20;;
20639;SDS011;10479;53.524;9.846;2022-07-31T06:09:57;29.63;;;15.65;;
20639;SDS011;10479;53.524;9.846;2022-07-31T06:12:22;25.38;;;15.85;;
20639;SDS011;10479;53.524;9.846;2022-07-31T06:14:47;24.63;;;15.60;;
20639;SDS011;10479;53.524;9.846;2022-07-31T06:17:13;26.33;;;16.30;;
20639;SDS011;10479;53.524;9.846;2022-07-31T06:19:38;24.02;;;15.25;;
20639;SDS011;10479;53.524;9.846;2022-07-31T06:22:04;26.05;;;15.95;;
20639;SDS011;10479;53.524;9.846;2022-07-31T06:24:29;26.65;;;15.85;;
20639;SDS011;10479;53.524;9.846;2022-07-31T06:26:59;26.33;;;15.07;;
20639;SDS011;10479;53.524;9.846;2022-07-31T06:29:26;25.50;;;15.05;;
20639;SDS011;10479;53.524;9.846;2022-07-31T06:31:55;23.35;;;13.68;;
20639;SDS011;10479;53.524;9.846;2022-07-31T06:34:21;22.02;;;13.23;;
20639;SDS011;10479;53.524;9.846;2022-07-31T06:36:47;20.52;;;11.98;;
20639;SDS011;10479;53.524;9.846;2022-07-31T06:39:14;21.98;;;12.43;;
20639;SDS011;10479;53.524;9.846;2022-07-31T06:41:39;22.67;;;12.90;;
20639;SDS011;10479;53.524;9.846;2022-07-31T06:44:15;19.45;;;11.77;;
20639;SDS011;10479;53.524;9.846;2022-07-31T06:46:40;19.27;;;10.60;;
20639;SDS011;10479;53.524;9.846;2022-07-31T06:49:06;18.02;;;11.00;;
20639;SDS011;10479;53.524;9.846;2022-07-31T06:51:32;20.42;;;11.43;;
20639;SDS011;10479;53.524;9.846;2022-07-31T06:54:05;16.33;;;11.15;;
20639;SDS011;10479;53.524;9.846;2022-07-31T06:56:34;17.15;;;9.95;;
20639;SDS011;10479;53.524;9.846;2022-07-31T06:59:00;17.25;;;10.38;;
20639;SDS011;10479;53.524;9.846;2022-07-31T07:01:27;16.38;;;10.15;;
20639;SDS011;10479;53.524;9.846;2022-07-31T07:03:53;22.63;;;12.45;;
20639;SDS011;10479;53.524;9.846;2022-07-31T07:06:19;16.27;;;10.60;;
20639;SDS011;10479;53.524;9.846;2022-07-31T07:08:45;14.15;;;9.05;;
20639;SDS011;10479;53.524;9.846;2022-07-31T07:11:10;22.98;;;9.65;;
20639;SDS011;10479;53.524;9.846;2022-07-31T07:13:36;11.73;;;7.80;;
20639;SDS011;10479;53.524;9.846;2022-07-31T07:16:02;13.48;;;7.78;;
20639;SDS011;10479;53.524;9.846;2022-07-31T07:18:27;11.73;;;8.10;;
20639;SDS011;10479;53.524;9.846;2022-07-31T07:20:53;12.05;;;7.60;;
20639;SDS011;10479;53.524;9.846;2022-07-31T07:23:18;11.82;;;7.57;;
20639;SDS011;10479;53.524;9.846;2022-07-31T07:25:45;10.80;;;6.22;;
20639;SDS011;10479;53.524;9.846;2022-07-31T07:28:10;13.00;;;6.00;;
20639;SDS011;10479;53.524;9.846;2022-07-31T07:30:36;14.70;;;6.20;;
20639;SDS011;10479;53.524;9.846;2022-07-31T07:33:01;14.30;;;5.47;;
20639;SDS011;10479;53.524;9.846;2022-07-31T07:35:29;11.48;;;5.22;;
20639;SDS011;10479;53.524;9.846;2022-07-31T07:37:55;11.02;;;4.47;;
20639;SDS011;10479;53.524;9.846;2022-07-31T07:40:21;11.73;;;5.55;;
20639;SDS011;10479;53.524;9.846;2022-07-31T07:42:47;11.32;;;5.75;;
20639;SDS011;10479;53.524;9.846;2022-07-31T07:45:12;9.35;;;5.47;;
20639;SDS011;10479;53.524;9.846;2022-07-31T07:47:38;11.43;;;5.78;;
20639;SDS011;10479;53.524;9.846;2022-07-31T07:50:05;10.02;;;4.10;;
20639;SDS011;10479;53.524;9.846;2022-07-31T07:52:31;7.00;;;3.72;;
20639;SDS011;10479;53.524;9.846;2022-07-31T07:55:00;8.07;;;3.65;;
20639;SDS011;10479;53.524;9.846;2022-07-31T07:57:25;11.55;;;4.40;;
20639;SDS011;10479;53.524;9.846;2022-07-31T07:59:51;6.68;;;3.42;;
20639;SDS011;10479;53.524;9.846;2022-07-31T08:02:17;8.20;;;3.45;;
20639;SDS011;10479;53.524;9.846;2022-07-31T08:04:42;5.57;;;3.10;;
20639;SDS011;10479;53.524;9.846;2022-07-31T08:07:08;6.78;;;3.13;;
20639;SDS011;10479;53.524;9.846;2022-07-31T08:09:34;5.82;;;2.83;;
20639;SDS011;10479;53.524;9.846;2022-07-31T08:12:00;8.02;;;2.80;;
20639;SDS011;10479;53.524;9.846;2022-07-31T08:14:26;8.15;;;2.90;;
20639;SDS011;10479;53.524;9.846;2022-07-31T08:16:52;7.30;;;2.90;;
20639;SDS011;10479;53.524;9.846;2022-07-31T08:19:18;6.53;;;3.15;;
20639;SDS011;10479;53.524;9.846;2022-07-31T08:21:44;4.28;;;2.70;;
20639;SDS011;10479;53.524;9.846;2022-07-31T08:24:09;5.93;;;2.80;;
20639;SDS011;10479;53.524;9.846;2022-07-31T08:26:40;5.43;;;2.53;;
20639;SDS011;10479;53.524;9.846;2022-07-31T08:29:23;8.02;;;2.60;;
20639;SDS011;10479;53.524;9.846;2022-07-31T08:31:49;4.65;;;2.28;;
20639;SDS011;10479;53.524;9.846;2022-07-31T08:34:16;4.53;;;1.90;;
20639;SDS011;10479;53.524;9.846;2022-07-31T08:36:42;6.03;;;2.00;;
20639;SDS011;10479;53.524;9.846;2022-07-31T08:39:07;4.32;;;2.08;;
20639;SDS011;10479;53.524;9.846;2022-07-31T08:41:33;3.67;;;1.92;;
20639;SDS011;10479;53.524;9.846;2022-07-31T08:44:03;4.65;;;1.80;;
20639;SDS011;10479;53.524;9.846;2022-07-31T08:46:29;7.68;;;2.33;;
20639;SDS011;10479;53.524;9.846;2022-07-31T08:48:56;4.78;;;2.05;;
20639;SDS011;10479;53.524;9.846;2022-07-31T08:51:23;6.10;;;2.42;;
20639;SDS011;10479;53.524;9.846;2022-07-31T08:53:49;5.10;;;2.10;;
20639;SDS011;10479;53.524;9.846;2022-07-31T08:56:15;5.03;;;2.00;;
20639;SDS011;10479;53.524;9.846;2022-07-31T08:58:42;6.05;;;2.13;;
20639;SDS011;10479;53.524;9.846;2022-07-31T09:01:09;5.00;;;1.98;;
20639;SDS011;10479;53.524;9.846;2022-07-31T09:03:37;5.93;;;2.40;;
20639;SDS011;10479;53.524;9.846;2022-07-31T09:06:03;6.20;;;2.28;;
20639;SDS011;10479;53.524;9.846;2022-07-31T09:08:31;7.47;;;2.35;;
20639;SDS011;10479;53.524;9.846;2022-07-31T09:11:06;5.57;;;2.38;;
20639;SDS011;10479;53.524;9.846;2022-07-31T09:13:33;6.95;;;1.80;;
20639;SDS011;10479;53.524;9.846;2022-07-31T09:16:01;5.13;;;1.90;;
20639;SDS011;10479;53.524;9.846;2022-07-31T09:18:27;4.95;;;2.45;;
20639;SDS011;10479;53.524;9.846;2022-07-31T09:20:58;5.97;;;2.28;;
20639;SDS011;10479;53.524;9.846;2022-07-31T09:23:28;6.68;;;2.40;;
20639;SDS011;10479;53.524;9.846;2022-07-31T09:25:58;5.45;;;1.92;;
20639;SDS011;10479;53.524;9.846;2022-07-31T09:28:31;5.78;;;2.10;;
20639;SDS011;10479;53.524;9.846;2022-07-31T09:31:06;10.77;;;2.47;;
20639;SDS011;10479;53.524;9.846;2022-07-31T09:33:32;4.70;;;2.08;;
20639;SDS011;10479;53.524;9.846;2022-07-31T09:35:58;5.28;;;2.80;;
20639;SDS011;10479;53.524;9.846;2022-07-31T09:38:34;6.47;;;2.00;;
20639;SDS011;10479;53.524;9.846;2022-07-31T09:41:10;5.32;;;2.03;;
20639;SDS011;10479;53.524;9.846;2022-07-31T09:43:40;6.25;;;2.20;;
20639;SDS011;10479;53.524;9.846;2022-07-31T09:46:06;5.35;;;1.90;;
20639;SDS011;10479;53.524;9.846;2022-07-31T09:48:33;4.22;;;1.90;;
20639;SDS011;10479;53.524;9.846;2022-07-31T09:51:03;7.30;;;2.08;;
20639;SDS011;10479;53.524;9.846;2022-07-31T09:56:09;6.10;;;2.08;;
20639;SDS011;10479;53.524;9.846;2022-07-31T09:58:37;7.05;;;2.28;;
20639;SDS011;10479;53.524;9.846;2022-07-31T10:01:04;5.63;;;1.80;;
20639;SDS011;10479;53.524;9.846;2022-07-31T10:03:33;5.15;;;2.00;;
20639;SDS011;10479;53.524;9.846;2022-07-31T10:06:00;6.50;;;1.90;;
20639;SDS011;10479;53.524;9.846;2022-07-31T10:08:26;5.05;;;2.25;;
20639;SDS011;10479;53.524;9.846;2022-07-31T10:10:53;5.35;;;1.83;;
20639;SDS011;10479;53.524;9.846;2022-07-31T10:13:19;3.72;;;1.80;;
20639;SDS011;10479;53.524;9.846;2022-07-31T10:15:45;3.63;;;1.90;;
20639;SDS011;10479;53.524;9.846;2022-07-31T10:18:12;5.63;;;1.70;;
20639;SDS011;10479;53.524;9.846;2022-07-31T10:20:41;5.32;;;1.83;;
20639;SDS011;10479;53.524;9.846;2022-07-31T10:23:13;7.88;;;2.25;;
20639;SDS011;10479;53.524;9.846;2022-07-31T10:25:45;5.13;;;2.20;;
20639;SDS011;10479;53.524;9.846;2022-07-31T10:28:12;5.28;;;2.10;;
20639;SDS011;10479;53.524;9.846;2022-07-31T10:30:38;4.65;;;1.90;;
20639;SDS011;10479;53.524;9.846;2022-07-31T10:33:03;4.28;;;1.92;;
20639;SDS011;10479;53.524;9.846;2022-07-31T10:35:32;5.72;;;2.20;;
20639;SDS011;10479;53.524;9.846;2022-07-31T10:38:11;4.80;;;1.80;;
20639;SDS011;10479;53.524;9.846;2022-07-31T10:40:41;5.10;;;1.65;;
20639;SDS011;10479;53.524;9.846;2022-07-31T10:43:16;4.28;;;1.75;;
20639;SDS011;10479;53.524;9.846;2022-07-31T10:45:50;3.95;;;1.63;;
20639;SDS011;10479;53.524;9.846;2022-07-31T10:48:16;4.78;;;1.70;;
20639;SDS011;10479;53.524;9.846;2022-07-31T10:50:42;5.22;;;1.92;;
20639;SDS011;10479;53.524;9.846;2022-07-31T10:53:10;6.47;;;1.85;;
20639;SDS011;10479;53.524;9.846;2022-07-31T10:55:40;2.85;;;1.58;;
20639;SDS011;10479;53.524;9.846;2022-07-31T10:58:08;6.25;;;2.05;;
20639;SDS011;10479;53.524;9.846;2022-07-31T11:00:38;6.75;;;1.90;;
20639;SDS011;10479;53.524;9.846;2022-07-31T11:03:12;6.13;;;1.90;;
20639;SDS011;10479;53.524;9.846;2022-07-31T11:05:54;6.57;;;1.77;;
20639;SDS011;10479;53.524;9.846;2022-07-31T11:08:22;5.10;;;1.83;;
20639;SDS011;10479;53.524;9.846;2022-07-31T11:10:51;3.75;;;1.83;;
20639;SDS011;10479;53.524;9.846;2022-07-31T11:13:17;6.13;;;1.92;;
20639;SDS011;10479;53.524;9.846;2022-07-31T11:15:43;3.70;;;1.60;;
20639;SDS011;10479;53.524;9.846;2022-07-31T11:18:13;5.30;;;1.77;;
20639;SDS011;10479;53.524;9.846;2022-07-31T11:20:43;5.22;;;2.13;;
20639;SDS011;10479;53.524;9.846;2022-07-31T11:23:15;7.65;;;1.98;;
20639;SDS011;10479;53.524;9.846;2022-07-31T11:25:42;6.72;;;2.00;;
20639;SDS011;10479;53.524;9.846;2022-07-31T11:28:18;5.50;;;2.10;;
20639;SDS011;10479;53.524;9.846;2022-07-31T11:33:14;7.55;;;1.80;;
20639;SDS011;10479;53.524;9.846;2022-07-31T11:35:39;5.78;;;2.13;;
20639;SDS011;10479;53.524;9.846;2022-07-31T11:38:05;6.05;;;1.90;;
20639;SDS011;10479;53.524;9.846;2022-07-31T11:40:30;6.13;;;2.22;;
20639;SDS011;10479;53.524;9.846;2022-07-31T11:42:56;4.45;;;1.70;;
20639;SDS011;10479;53.524;9.846;2022-07-31T11:45:22;5.70;;;2.05;;
20639;SDS011;10479;53.524;9.846;2022-07-31T11:47:47;6.78;;;2.00;;
20639;SDS011;10479;53.524;9.846;2022-07-31T11:50:15;3.63;;;1.70;;
20639;SDS011;10479;53.524;9.846;2022-07-31T11:52:41;6.95;;;1.58;;
20639;SDS011;10479;53.524;9.846;2022-07-31T11:55:11;4.22;;;1.90;;
20639;SDS011;10479;53.524;9.846;2022-07-31T11:57:40;5.05;;;1.77;;
20639;SDS011;10479;53.524;9.846;2022-07-31T12:00:09;7.10;;;1.70;;
20639;SDS011;10479;53.524;9.846;2022-07-31T12:02:43;5.65;;;1.67;;
20639;SDS011;10479;53.524;9.846;2022-07-31T12:05:10;5.88;;;2.05;;
20639;SDS011;10479;53.524;9.846;2022-07-31T12:07:40;7.25;;;2.08;;
20639;SDS011;10479;53.524;9.846;2022-07-31T12:10:18;5.85;;;1.90;;
20639;SDS011;10479;53.524;9.846;2022-07-31T12:12:45;4.65;;;2.00;;
20639;SDS011;10479;53.524;9.846;2022-07-31T12:15:15;6.55;;;1.83;;
20639;SDS011;10479;53.524;9.846;2022-07-31T12:17:45;5.55;;;1.90;;
20639;SDS011;10479;53.524;9.846;2022-07-31T12:20:11;6.80;;;1.90;;
20639;SDS011;10479;53.524;9.846;2022-07-31T12:22:38;5.03;;;1.88;;
20639;SDS011;10479;53.524;9.846;2022-07-31T12:25:03;7.10;;;2.22;;
20639;SDS011;10479;53.524;9.846;2022-07-31T12:27:34;5.55;;;1.90;;
20639;SDS011;10479;53.524;9.846;2022-07-31T12:30:10;5.93;;;2.10;;
20639;SDS011;10479;53.524;9.846;2022-07-31T12:32:37;3.75;;;1.95;;
20639;SDS011;10479;53.524;9.846;2022-07-31T12:35:02;5.47;;;1.63;;
20639;SDS011;10479;53.524;9.846;2022-07-31T12:37:28;9.35;;;2.10;;
20639;SDS011;10479;53.524;9.846;2022-07-31T12:39:54;5.53;;;2.08;;
20639;SDS011;10479;53.524;9.846;2022-07-31T12:42:31;5.65;;;2.03;;
20639;SDS011;10479;53.524;9.846;2022-07-31T12:44:59;5.32;;;2.10;;
20639;SDS011;10479;53.524;9.846;2022-07-31T12:47:26;9.73;;;2.30;;
20639;SDS011;10479;53.524;9.846;2022-07-31T12:49:54;8.52;;;2.30;;
20639;SDS011;10479;53.524;9.846;2022-07-31T12:52:19;7.00;;;2.30;;
20639;SDS011;10479;53.524;9.846;2022-07-31T12:54:45;6.85;;;2.47;;
20639;SDS011;10479;53.524;9.846;2022-07-31T12:57:10;8.48;;;2.38;;
20639;SDS011;10479;53.524;9.846;2022-07-31T12:59:36;9.43;;;2.60;;
20639;SDS011;10479;53.524;9.846;2022-07-31T13:02:03;4.90;;;2.30;;
20639;SDS011;10479;53.524;9.846;2022-07-31T13:04:29;7.55;;;2.45;;
20639;SDS011;10479;53.524;9.846;2022-07-31T13:06:54;4.72;;;2.00;;
20639;SDS011;10479;53.524;9.846;2022-07-31T13:09:20;11.45;;;2.33;;
20639;SDS011;10479;53.524;9.846;2022-07-31T13:11:45;5.50;;;2.35;;
20639;SDS011;10479;53.524;9.846;2022-07-31T13:14:11;5.50;;;2.33;;
20639;SDS011;10479;53.524;9.846;2022-07-31T13:16:36;4.97;;;2.10;;
20639;SDS011;10479;53.524;9.846;2022-07-31T13:19:02;4.93;;;2.42;;
20639;SDS011;10479;53.524;9.846;2022-07-31T13:21:29;7.45;;;2.78;;
20639;SDS011;10479;53.524;9.846;2022-07-31T13:23:55;5.65;;;2.50;;
20639;SDS011;10479;53.524;9.846;2022-07-31T13:26:22;8.77;;;2.40;;
20639;SDS011;10479;53.524;9.846;2022-07-31T13:28:47;8.05;;;2.85;;
20639;SDS011;10479;53.524;9.846;2022-07-31T13:31:13;5.68;;;2.60;;
20639;SDS011;10479;53.524;9.846;2022-07-31T13:33:38;5.68;;;2.38;;
20639;SDS011;10479;53.524;9.846;2022-07-31T13:36:04;6.25;;;2.80;;
20639;SDS011;10479;53.524;9.846;2022-07-31T13:38:30;5.18;;;2.58;;
20639;SDS011;10479;53.524;9.846;2022-07-31T13:40:55;5.43;;;2.25;;
20639;SDS011;10479;53.524;9.846;2022-07-31T13:43:39;6.90;;;2.78;;
20639;SDS011;10479;53.524;9.846;2022-07-31T13:46:05;7.85;;;2.58;;
20639;SDS011;10479;53.524;9.846;2022-07-31T13:48:30;10.80;;;2.67;;
20639;SDS011;10479;53.524;9.846;2022-07-31T13:50:57;6.30;;;2.55;;
20639;SDS011;10479;53.524;9.846;2022-07-31T13:53:23;7.18;;;2.30;;
20639;SDS011;10479;53.524;9.846;2022-07-31T13:55:48;5.28;;;2.47;;
20639;SDS011;10479;53.524;9.846;2022-07-31T13:58:13;5.13;;;2.65;;
20639;SDS011;10479;53.524;9.846;2022-07-31T14:00:39;8.70;;;2.60;;
20639;SDS011;10479;53.524;9.846;2022-07-31T14:03:05;6.75;;;2.35;;
20639;SDS011;10479;53.524;9.846;2022-07-31T14:05:31;6.60;;;2.67;;
20639;SDS011;10479;53.524;9.846;2022-07-31T14:07:56;6.90;;;2.72;;
20639;SDS011;10479;53.524;9.846;2022-07-31T14:10:22;10.35;;;2.40;;
20639;SDS011;10479;53.524;9.846;2022-07-31T14:12:48;7.00;;;2.70;;
20639;SDS011;10479;53.524;9.846;2022-07-31T14:15:14;7.00;;;2.78;;
20639;SDS011;10479;53.524;9.846;2022-07-31T14:17:41;4.80;;;2.33;;
20639;SDS011;10479;53.524;9.846;2022-07-31T14:20:07;4.57;;;2.60;;
20639;SDS011;10479;53.524;9.846;2022-07-31T14:22:33;9.07;;;2.90;;
20639;SDS011;10479;53.524;9.846;2022-07-31T14:24:58;7.15;;;2.92;;
20639;SDS011;10479;53.524;9.846;2022-07-31T14:27:24;6.65;;;3.22;;
20639;SDS011;10479;53.524;9.846;2022-07-31T14:29:49;6.32;;;2.83;;
20639;SDS011;10479;53.524;9.846;2022-07-31T14:32:15;5.15;;;2.83;;
20639;SDS011;10479;53.524;9.846;2022-07-31T14:34:40;7.32;;;2.88;;
20639;SDS011;10479;53.524;9.846;2022-07-31T14:37:06;9.43;;;3.38;;
20639;SDS011;10479;53.524;9.846;2022-07-31T14:39:31;11.25;;;3.45;;
20639;SDS011;10479;53.524;9.846;2022-07-31T14:41:57;7.78;;;3.60;;
20639;SDS011;10479;53.524;9.846;2022-07-31T14:44:22;6.78;;;3.55;;
20639;SDS011;10479;53.524;9.846;2022-07-31T14:46:48;6.90;;;4.22;;
20639;SDS011;10479;53.524;9.846;2022-07-31T14:49:14;9.50;;;4.78;;